sensor_id;sensor_type;location;lat;lon;timestamp;P1;durP1;ratioP1;P2;durP2;ratioP2
21862;SDS011;11096;51.338;12.524;2023-03-31T00:00:09;5.25;;;1.38;;
21862;SDS011;11096;51.338;12.524;2023-03-31T00:02:38;5.85;;;1.33;;
21862;SDS011;11096;51.338;12.524;2023-03-31T00:05:07;8.55;;;1.30;;
21862;SDS011;11096;51.338;12.524;2023-03-31T00:07:33;2.25;;;1.23;;
21862;SDS011;11096;51.338;12.524;2023-03-31T00:10:02;6.50;;;1.25;;
21862;SDS011;11096;51.338;12.524;2023-03-31T00:12:29;4.97;;;1.35;;
21862;SDS011;11096;51.338;12.524;2023-03-31T00:14:55;1.73;;;1.23;;
21862;SDS011;11096;51.338;12.524;2023-03-31T00:17:20;2.50;;;1.30;;
21862;SDS011;11096;51.338;12.524;2023-03-31T00:19:46;2.92;;;1.40;;
21862;SDS011;11096;51.338;12.524;2023-03-31T00:22:14;7.57;;;1.63;;
21862;SDS011;11096;51.338;12.524;2023-03-31T00:24:43;3.65;;;1.40;;
21862;SDS011;11096;51.338;12.524;2023-03-31T00:27:08;3.28;;;1.10;;
21862;SDS011;11096;51.338;12.524;2023-03-31T00:29:35;4.10;;;1.67;;
21862;SDS011;11096;51.338;12.524;2023-03-31T00:32:05;2.97;;;1.25;;
21862;SDS011;11096;51.338;12.524;2023-03-31T00:34:30;5.45;;;1.40;;
21862;SDS011;11096;51.338;12.524;2023-03-31T00:36:56;4.03;;;1.38;;
21862;SDS011;11096;51.338;12.524;2023-03-31T00:39:26;2.10;;;1.45;;
21862;SDS011;11096;51.338;12.524;2023-03-31T00:41:56;4.45;;;1.30;;
21862;SDS011;11096;51.338;12.524;2023-03-31T00:44:22;3.72;;;1.42;;
21862;SDS011;11096;51.338;12.524;2023-03-31T00:46:54;5.43;;;1.40;;
21862;SDS011;11096;51.338;12.524;2023-03-31T00:49:39;4.28;;;1.63;;
21862;SDS011;11096;51.338;12.524;2023-03-31T00:52:29;7.47;;;1.42;;
21862;SDS011;11096;51.338;12.524;2023-03-31T00:55:03;4.63;;;1.20;;
21862;SDS011;11096;51.338;12.524;2023-03-31T00:57:32;5.97;;;1.50;;
21862;SDS011;11096;51.338;12.524;2023-03-31T01:00:02;4.25;;;1.65;;
21862;SDS011;11096;51.338;12.524;2023-03-31T01:02:44;4.32;;;1.55;;
21862;SDS011;11096;51.338;12.524;2023-03-31T01:05:24;3.25;;;1.13;;
21862;SDS011;11096;51.338;12.524;2023-03-31T01:07:57;5.18;;;1.48;;
21862;SDS011;11096;51.338;12.524;2023-03-31T01:10:24;2.40;;;1.45;;
21862;SDS011;11096;51.338;12.524;2023-03-31T01:12:51;4.80;;;1.52;;
21862;SDS011;11096;51.338;12.524;2023-03-31T01:15:19;4.60;;;1.60;;
21862;SDS011;11096;51.338;12.524;2023-03-31T01:17:46;4.35;;;1.63;;
21862;SDS011;11096;51.338;12.524;2023-03-31T01:41:33;5.38;;;1.73;;
21862;SDS011;11096;51.338;12.524;2023-03-31T01:44:05;2.92;;;1.60;;
21862;SDS011;11096;51.338;12.524;2023-03-31T01:46:57;6.55;;;1.75;;
21862;SDS011;11096;51.338;12.524;2023-03-31T01:49:34;8.27;;;2.03;;
21862;SDS011;11096;51.338;12.524;2023-03-31T01:52:17;5.28;;;1.80;;
21862;SDS011;11096;51.338;12.524;2023-03-31T02:02:49;7.22;;;1.67;;
21862;SDS011;11096;51.338;12.524;2023-03-31T02:05:24;3.00;;;1.83;;
21862;SDS011;11096;51.338;12.524;2023-03-31T02:10:31;4.03;;;1.40;;
21862;SDS011;11096;51.338;12.524;2023-03-31T02:12:58;5.13;;;1.50;;
21862;SDS011;11096;51.338;12.524;2023-03-31T02:15:30;3.42;;;1.20;;
21862;SDS011;11096;51.338;12.524;2023-03-31T02:18:03;5.88;;;2.10;;
21862;SDS011;11096;51.338;12.524;2023-03-31T02:20:35;4.03;;;1.67;;
21862;SDS011;11096;51.338;12.524;2023-03-31T02:23:03;8.00;;;2.00;;
21862;SDS011;11096;51.338;12.524;2023-03-31T02:25:33;4.20;;;1.58;;
21862;SDS011;11096;51.338;12.524;2023-03-31T02:28:03;5.70;;;1.80;;
21862;SDS011;11096;51.338;12.524;2023-03-31T02:30:41;5.00;;;1.77;;
21862;SDS011;11096;51.338;12.524;2023-03-31T02:33:12;4.80;;;1.83;;
21862;SDS011;11096;51.338;12.524;2023-03-31T02:35:37;6.47;;;1.88;;
21862;SDS011;11096;51.338;12.524;2023-03-31T02:38:03;6.63;;;1.55;;
21862;SDS011;11096;51.338;12.524;2023-03-31T02:40:31;4.65;;;2.28;;
21862;SDS011;11096;51.338;12.524;2023-03-31T02:42:56;6.90;;;1.42;;
21862;SDS011;11096;51.338;12.524;2023-03-31T02:45:42;3.22;;;1.50;;
21862;SDS011;11096;51.338;12.524;2023-03-31T02:53:43;6.35;;;2.03;;
21862;SDS011;11096;51.338;12.524;2023-03-31T03:02:12;6.13;;;1.73;;
21862;SDS011;11096;51.338;12.524;2023-03-31T03:04:48;5.25;;;1.88;;
21862;SDS011;11096;51.338;12.524;2023-03-31T03:09:45;6.60;;;2.47;;
21862;SDS011;11096;51.338;12.524;2023-03-31T03:12:19;3.65;;;1.50;;
21862;SDS011;11096;51.338;12.524;2023-03-31T03:17:25;3.67;;;1.67;;
21862;SDS011;11096;51.338;12.524;2023-03-31T03:19:53;5.70;;;1.58;;
21862;SDS011;11096;51.338;12.524;2023-03-31T03:22:21;6.18;;;2.05;;
21862;SDS011;11096;51.338;12.524;2023-03-31T03:24:47;7.78;;;1.88;;
21862;SDS011;11096;51.338;12.524;2023-03-31T03:27:12;6.05;;;1.98;;
21862;SDS011;11096;51.338;12.524;2023-03-31T03:29:38;4.25;;;1.60;;
21862;SDS011;11096;51.338;12.524;2023-03-31T03:32:03;6.25;;;2.05;;
21862;SDS011;11096;51.338;12.524;2023-03-31T03:34:28;5.25;;;1.52;;
21862;SDS011;11096;51.338;12.524;2023-03-31T03:36:54;7.90;;;1.65;;
21862;SDS011;11096;51.338;12.524;2023-03-31T03:39:20;5.45;;;1.80;;
21862;SDS011;11096;51.338;12.524;2023-03-31T03:41:45;7.45;;;1.98;;
21862;SDS011;11096;51.338;12.524;2023-03-31T03:44:11;6.03;;;1.77;;
21862;SDS011;11096;51.338;12.524;2023-03-31T03:46:36;6.20;;;1.67;;
21862;SDS011;11096;51.338;12.524;2023-03-31T03:49:01;5.00;;;1.52;;
21862;SDS011;11096;51.338;12.524;2023-03-31T03:51:27;5.13;;;1.65;;
21862;SDS011;11096;51.338;12.524;2023-03-31T03:53:52;3.60;;;1.50;;
21862;SDS011;11096;51.338;12.524;2023-03-31T03:56:18;3.75;;;1.70;;
21862;SDS011;11096;51.338;12.524;2023-03-31T03:58:43;8.73;;;2.00;;
21862;SDS011;11096;51.338;12.524;2023-03-31T04:01:08;5.82;;;1.65;;
21862;SDS011;11096;51.338;12.524;2023-03-31T04:03:34;8.70;;;1.60;;
21862;SDS011;11096;51.338;12.524;2023-03-31T04:05:59;2.28;;;1.40;;
21862;SDS011;11096;51.338;12.524;2023-03-31T04:08:25;5.85;;;1.90;;
21862;SDS011;11096;51.338;12.524;2023-03-31T04:10:51;5.20;;;1.80;;
21862;SDS011;11096;51.338;12.524;2023-03-31T04:13:17;7.30;;;1.67;;
21862;SDS011;11096;51.338;12.524;2023-03-31T04:15:44;4.15;;;1.58;;
21862;SDS011;11096;51.338;12.524;2023-03-31T04:18:10;6.75;;;1.60;;
21862;SDS011;11096;51.338;12.524;2023-03-31T04:20:44;5.10;;;1.52;;
21862;SDS011;11096;51.338;12.524;2023-03-31T04:23:09;2.38;;;1.42;;
21862;SDS011;11096;51.338;12.524;2023-03-31T04:25:38;4.97;;;2.10;;
21862;SDS011;11096;51.338;12.524;2023-03-31T04:28:10;4.05;;;1.60;;
21862;SDS011;11096;51.338;12.524;2023-03-31T04:30:38;9.07;;;1.58;;
21862;SDS011;11096;51.338;12.524;2023-03-31T04:33:04;7.05;;;2.08;;
21862;SDS011;11096;51.338;12.524;2023-03-31T04:35:30;4.07;;;1.88;;
21862;SDS011;11096;51.338;12.524;2023-03-31T04:38:06;5.18;;;1.48;;
21862;SDS011;11096;51.338;12.524;2023-03-31T04:40:32;4.00;;;1.60;;
21862;SDS011;11096;51.338;12.524;2023-03-31T04:42:59;4.38;;;1.42;;
21862;SDS011;11096;51.338;12.524;2023-03-31T04:45:25;5.65;;;1.80;;
21862;SDS011;11096;51.338;12.524;2023-03-31T04:47:50;6.82;;;1.90;;
21862;SDS011;11096;51.338;12.524;2023-03-31T04:50:15;4.05;;;1.80;;
21862;SDS011;11096;51.338;12.524;2023-03-31T04:52:41;6.38;;;1.95;;
21862;SDS011;11096;51.338;12.524;2023-03-31T04:55:07;5.40;;;1.70;;
21862;SDS011;11096;51.338;12.524;2023-03-31T04:57:32;4.72;;;1.40;;
21862;SDS011;11096;51.338;12.524;2023-03-31T04:59:58;2.83;;;1.50;;
21862;SDS011;11096;51.338;12.524;2023-03-31T05:02:23;5.90;;;1.48;;
21862;SDS011;11096;51.338;12.524;2023-03-31T05:04:49;4.22;;;1.92;;
21862;SDS011;11096;51.338;12.524;2023-03-31T05:07:15;4.28;;;1.80;;
21862;SDS011;11096;51.338;12.524;2023-03-31T05:09:42;5.18;;;1.30;;
21862;SDS011;11096;51.338;12.524;2023-03-31T05:12:07;3.17;;;1.58;;
21862;SDS011;11096;51.338;12.524;2023-03-31T05:14:33;2.97;;;1.30;;
21862;SDS011;11096;51.338;12.524;2023-03-31T05:16:58;4.03;;;1.15;;
21862;SDS011;11096;51.338;12.524;2023-03-31T05:19:24;2.00;;;1.63;;
21862;SDS011;11096;51.338;12.524;2023-03-31T05:21:49;4.40;;;1.33;;
21862;SDS011;11096;51.338;12.524;2023-03-31T05:24:15;3.17;;;1.10;;
21862;SDS011;11096;51.338;12.524;2023-03-31T05:26:41;3.67;;;1.58;;
21862;SDS011;11096;51.338;12.524;2023-03-31T05:29:12;4.72;;;1.60;;
21862;SDS011;11096;51.338;12.524;2023-03-31T05:31:37;3.47;;;1.50;;
21862;SDS011;11096;51.338;12.524;2023-03-31T05:34:02;2.92;;;1.70;;
21862;SDS011;11096;51.338;12.524;2023-03-31T05:36:28;6.88;;;1.55;;
21862;SDS011;11096;51.338;12.524;2023-03-31T05:38:53;5.03;;;1.20;;
21862;SDS011;11096;51.338;12.524;2023-03-31T05:41:18;6.97;;;1.35;;
21862;SDS011;11096;51.338;12.524;2023-03-31T05:43:44;2.90;;;1.40;;
21862;SDS011;11096;51.338;12.524;2023-03-31T05:46:10;2.25;;;1.17;;
21862;SDS011;11096;51.338;12.524;2023-03-31T05:48:35;3.28;;;1.15;;
21862;SDS011;11096;51.338;12.524;2023-03-31T05:51:02;5.97;;;1.42;;
21862;SDS011;11096;51.338;12.524;2023-03-31T05:53:27;3.30;;;1.30;;
21862;SDS011;11096;51.338;12.524;2023-03-31T05:56:00;3.15;;;1.73;;
21862;SDS011;11096;51.338;12.524;2023-03-31T05:58:28;8.05;;;1.40;;
21862;SDS011;11096;51.338;12.524;2023-03-31T06:01:03;2.92;;;1.25;;
21862;SDS011;11096;51.338;12.524;2023-03-31T06:03:32;2.65;;;1.10;;
21862;SDS011;11096;51.338;12.524;2023-03-31T06:06:02;2.80;;;1.20;;
21862;SDS011;11096;51.338;12.524;2023-03-31T06:08:29;4.70;;;1.63;;
21862;SDS011;11096;51.338;12.524;2023-03-31T06:10:55;3.53;;;1.65;;
21862;SDS011;11096;51.338;12.524;2023-03-31T06:13:20;3.38;;;1.25;;
21862;SDS011;11096;51.338;12.524;2023-03-31T06:15:55;4.75;;;1.25;;
21862;SDS011;11096;51.338;12.524;2023-03-31T06:18:22;6.00;;;1.30;;
21862;SDS011;11096;51.338;12.524;2023-03-31T06:20:49;6.65;;;1.52;;
21862;SDS011;11096;51.338;12.524;2023-03-31T06:23:15;5.22;;;1.42;;
21862;SDS011;11096;51.338;12.524;2023-03-31T06:25:41;7.03;;;1.60;;
21862;SDS011;11096;51.338;12.524;2023-03-31T06:28:06;2.28;;;1.30;;
21862;SDS011;11096;51.338;12.524;2023-03-31T06:30:32;5.70;;;1.20;;
21862;SDS011;11096;51.338;12.524;2023-03-31T06:32:57;4.95;;;1.48;;
21862;SDS011;11096;51.338;12.524;2023-03-31T06:35:23;7.40;;;1.20;;
21862;SDS011;11096;51.338;12.524;2023-03-31T06:37:49;6.05;;;1.40;;
21862;SDS011;11096;51.338;12.524;2023-03-31T06:40:14;2.67;;;1.25;;
21862;SDS011;11096;51.338;12.524;2023-03-31T06:42:40;2.67;;;1.20;;
21862;SDS011;11096;51.338;12.524;2023-03-31T06:45:05;3.85;;;1.10;;
21862;SDS011;11096;51.338;12.524;2023-03-31T06:47:31;2.60;;;1.00;;
21862;SDS011;11096;51.338;12.524;2023-03-31T06:49:56;3.58;;;1.20;;
21862;SDS011;11096;51.338;12.524;2023-03-31T06:52:22;2.50;;;0.98;;
21862;SDS011;11096;51.338;12.524;2023-03-31T06:54:47;4.65;;;0.90;;
21862;SDS011;11096;51.338;12.524;2023-03-31T06:57:13;2.45;;;1.20;;
21862;SDS011;11096;51.338;12.524;2023-03-31T06:59:38;2.42;;;1.17;;
21862;SDS011;11096;51.338;12.524;2023-03-31T07:02:03;4.53;;;1.20;;
21862;SDS011;11096;51.338;12.524;2023-03-31T07:04:29;4.32;;;1.10;;
21862;SDS011;11096;51.338;12.524;2023-03-31T07:06:54;1.83;;;1.30;;
21862;SDS011;11096;51.338;12.524;2023-03-31T07:09:22;6.97;;;1.25;;
21862;SDS011;11096;51.338;12.524;2023-03-31T07:11:48;4.63;;;1.40;;
21862;SDS011;11096;51.338;12.524;2023-03-31T07:14:13;3.65;;;1.10;;
21862;SDS011;11096;51.338;12.524;2023-03-31T07:16:39;3.40;;;0.90;;
21862;SDS011;11096;51.338;12.524;2023-03-31T07:19:05;2.47;;;1.08;;
21862;SDS011;11096;51.338;12.524;2023-03-31T07:21:32;2.70;;;1.00;;
21862;SDS011;11096;51.338;12.524;2023-03-31T07:23:57;2.58;;;1.30;;
21862;SDS011;11096;51.338;12.524;2023-03-31T07:26:23;5.30;;;1.20;;
21862;SDS011;11096;51.338;12.524;2023-03-31T07:28:48;4.25;;;1.33;;
21862;SDS011;11096;51.338;12.524;2023-03-31T07:31:15;4.82;;;1.05;;
21862;SDS011;11096;51.338;12.524;2023-03-31T07:33:41;3.83;;;1.45;;
21862;SDS011;11096;51.338;12.524;2023-03-31T07:36:07;3.10;;;1.10;;
21862;SDS011;11096;51.338;12.524;2023-03-31T07:38:33;3.28;;;1.40;;
21862;SDS011;11096;51.338;12.524;2023-03-31T07:40:58;7.13;;;1.55;;
21862;SDS011;11096;51.338;12.524;2023-03-31T07:43:24;5.18;;;1.30;;
21862;SDS011;11096;51.338;12.524;2023-03-31T07:45:49;4.25;;;1.40;;
21862;SDS011;11096;51.338;12.524;2023-03-31T07:48:15;3.80;;;1.20;;
21862;SDS011;11096;51.338;12.524;2023-03-31T07:50:40;3.30;;;1.05;;
21862;SDS011;11096;51.338;12.524;2023-03-31T07:53:06;4.05;;;1.17;;
21862;SDS011;11096;51.338;12.524;2023-03-31T07:55:31;5.53;;;1.83;;
21862;SDS011;11096;51.338;12.524;2023-03-31T07:57:57;1.95;;;1.02;;
21862;SDS011;11096;51.338;12.524;2023-03-31T08:00:22;5.93;;;1.50;;
21862;SDS011;11096;51.338;12.524;2023-03-31T08:02:48;4.55;;;1.23;;
21862;SDS011;11096;51.338;12.524;2023-03-31T08:05:14;5.72;;;1.40;;
21862;SDS011;11096;51.338;12.524;2023-03-31T08:07:44;6.85;;;2.28;;
21862;SDS011;11096;51.338;12.524;2023-03-31T08:10:12;5.20;;;1.42;;
21862;SDS011;11096;51.338;12.524;2023-03-31T08:12:43;5.15;;;1.40;;
21862;SDS011;11096;51.338;12.524;2023-03-31T08:15:09;5.78;;;1.38;;
21862;SDS011;11096;51.338;12.524;2023-03-31T08:17:35;5.15;;;1.08;;
21862;SDS011;11096;51.338;12.524;2023-03-31T08:20:01;6.32;;;1.50;;
21862;SDS011;11096;51.338;12.524;2023-03-31T08:22:30;4.47;;;1.40;;
21862;SDS011;11096;51.338;12.524;2023-03-31T08:24:56;3.65;;;1.13;;
21862;SDS011;11096;51.338;12.524;2023-03-31T08:27:21;5.80;;;1.40;;
21862;SDS011;11096;51.338;12.524;2023-03-31T08:29:46;7.60;;;1.10;;
21862;SDS011;11096;51.338;12.524;2023-03-31T08:32:12;3.03;;;1.25;;
21862;SDS011;11096;51.338;12.524;2023-03-31T08:34:37;4.65;;;1.23;;
21862;SDS011;11096;51.338;12.524;2023-03-31T08:37:06;3.50;;;1.33;;
21862;SDS011;11096;51.338;12.524;2023-03-31T08:39:32;3.03;;;1.13;;
21862;SDS011;11096;51.338;12.524;2023-03-31T08:42:02;3.55;;;1.00;;
21862;SDS011;11096;51.338;12.524;2023-03-31T08:44:57;5.50;;;1.10;;
21862;SDS011;11096;51.338;12.524;2023-03-31T08:47:25;2.78;;;1.13;;
21862;SDS011;11096;51.338;12.524;2023-03-31T08:49:54;2.63;;;0.90;;
21862;SDS011;11096;51.338;12.524;2023-03-31T08:52:24;7.90;;;1.58;;
21862;SDS011;11096;51.338;12.524;2023-03-31T08:54:55;8.73;;;1.35;;
21862;SDS011;11096;51.338;12.524;2023-03-31T08:57:31;4.25;;;1.70;;
21862;SDS011;11096;51.338;12.524;2023-03-31T09:00:18;3.65;;;1.30;;
21862;SDS011;11096;51.338;12.524;2023-03-31T09:08:35;4.45;;;1.40;;
21862;SDS011;11096;51.338;12.524;2023-03-31T09:14:04;5.38;;;1.60;;
21862;SDS011;11096;51.338;12.524;2023-03-31T09:19:16;3.45;;;1.65;;
21862;SDS011;11096;51.338;12.524;2023-03-31T09:21:51;7.40;;;1.55;;
21862;SDS011;11096;51.338;12.524;2023-03-31T09:24:21;4.13;;;1.67;;
21862;SDS011;11096;51.338;12.524;2023-03-31T09:26:53;8.02;;;1.70;;
21862;SDS011;11096;51.338;12.524;2023-03-31T09:32:14;3.60;;;1.30;;
21862;SDS011;11096;51.338;12.524;2023-03-31T09:34:46;7.85;;;1.67;;
21862;SDS011;11096;51.338;12.524;2023-03-31T09:37:17;3.20;;;1.83;;
21862;SDS011;11096;51.338;12.524;2023-03-31T09:39:43;4.60;;;1.75;;
21862;SDS011;11096;51.338;12.524;2023-03-31T09:42:09;3.08;;;1.55;;
21862;SDS011;11096;51.338;12.524;2023-03-31T09:44:37;8.77;;;1.88;;
21862;SDS011;11096;51.338;12.524;2023-03-31T09:47:05;5.13;;;1.60;;
21862;SDS011;11096;51.338;12.524;2023-03-31T09:49:35;8.10;;;2.30;;
21862;SDS011;11096;51.338;12.524;2023-03-31T09:52:04;9.10;;;1.85;;
21862;SDS011;11096;51.338;12.524;2023-03-31T09:54:37;4.40;;;1.67;;
21862;SDS011;11096;51.338;12.524;2023-03-31T09:57:29;6.78;;;1.60;;
21862;SDS011;11096;51.338;12.524;2023-03-31T10:02:49;5.35;;;2.20;;
21862;SDS011;11096;51.338;12.524;2023-03-31T10:05:29;6.20;;;1.90;;
21862;SDS011;11096;51.338;12.524;2023-03-31T10:10:48;5.68;;;2.03;;
21862;SDS011;11096;51.338;12.524;2023-03-31T10:13:46;4.90;;;1.80;;
21862;SDS011;11096;51.338;12.524;2023-03-31T10:16:33;4.60;;;1.92;;
21862;SDS011;11096;51.338;12.524;2023-03-31T10:19:17;5.28;;;1.55;;
21862;SDS011;11096;51.338;12.524;2023-03-31T10:21:57;3.08;;;1.70;;
21862;SDS011;11096;51.338;12.524;2023-03-31T10:24:40;8.18;;;2.13;;
21862;SDS011;11096;51.338;12.524;2023-03-31T10:27:28;3.95;;;1.77;;
21862;SDS011;11096;51.338;12.524;2023-03-31T10:29:55;10.77;;;2.20;;
21862;SDS011;11096;51.338;12.524;2023-03-31T10:32:23;2.80;;;1.80;;
21862;SDS011;11096;51.338;12.524;2023-03-31T10:34:57;7.22;;;1.95;;
21862;SDS011;11096;51.338;12.524;2023-03-31T10:37:27;7.70;;;1.77;;
21862;SDS011;11096;51.338;12.524;2023-03-31T10:40:27;6.82;;;1.92;;
21862;SDS011;11096;51.338;12.524;2023-03-31T10:43:33;4.03;;;1.70;;
21862;SDS011;11096;51.338;12.524;2023-03-31T10:45:50;12.82;;;2.00;;
21862;SDS011;11096;51.338;12.524;2023-03-31T10:50:48;9.88;;;2.50;;
21862;SDS011;11096;51.338;12.524;2023-03-31T10:53:14;4.30;;;2.30;;
21862;SDS011;11096;51.338;12.524;2023-03-31T10:55:45;5.80;;;2.20;;
21862;SDS011;11096;51.338;12.524;2023-03-31T10:58:34;5.40;;;2.55;;
21862;SDS011;11096;51.338;12.524;2023-03-31T11:03:50;5.18;;;2.70;;
21862;SDS011;11096;51.338;12.524;2023-03-31T11:09:13;5.78;;;2.83;;
21862;SDS011;11096;51.338;12.524;2023-03-31T11:11:50;7.43;;;2.85;;
21862;SDS011;11096;51.338;12.524;2023-03-31T11:14:29;7.53;;;3.22;;
21862;SDS011;11096;51.338;12.524;2023-03-31T11:25:33;12.30;;;3.25;;
21862;SDS011;11096;51.338;12.524;2023-03-31T11:36:06;7.30;;;3.20;;
21862;SDS011;11096;51.338;12.524;2023-03-31T11:38:51;7.03;;;3.60;;
21862;SDS011;11096;51.338;12.524;2023-03-31T11:41:43;9.70;;;3.70;;
21862;SDS011;11096;51.338;12.524;2023-03-31T11:44:14;9.85;;;3.92;;
21862;SDS011;11096;51.338;12.524;2023-03-31T11:46:45;10.88;;;3.75;;
21862;SDS011;11096;51.338;12.524;2023-03-31T11:49:23;10.80;;;3.40;;
21862;SDS011;11096;51.338;12.524;2023-03-31T11:52:01;9.30;;;3.60;;
21862;SDS011;11096;51.338;12.524;2023-03-31T11:57:26;8.77;;;3.90;;
21862;SDS011;11096;51.338;12.524;2023-03-31T11:59:57;14.00;;;4.32;;
21862;SDS011;11096;51.338;12.524;2023-03-31T12:05:07;11.68;;;3.95;;
21862;SDS011;11096;51.338;12.524;2023-03-31T12:07:54;8.98;;;4.03;;
21862;SDS011;11096;51.338;12.524;2023-03-31T12:10:47;8.20;;;3.53;;
21862;SDS011;11096;51.338;12.524;2023-03-31T12:13:32;8.15;;;4.07;;
21862;SDS011;11096;51.338;12.524;2023-03-31T12:16:00;10.40;;;3.97;;
21862;SDS011;11096;51.338;12.524;2023-03-31T12:18:35;9.02;;;3.92;;
21862;SDS011;11096;51.338;12.524;2023-03-31T12:21:23;7.32;;;3.38;;
21862;SDS011;11096;51.338;12.524;2023-03-31T12:23:51;8.68;;;3.80;;
21862;SDS011;11096;51.338;12.524;2023-03-31T12:28:56;9.20;;;3.55;;
21862;SDS011;11096;51.338;12.524;2023-03-31T12:31:27;6.95;;;3.78;;
21862;SDS011;11096;51.338;12.524;2023-03-31T12:34:04;9.20;;;3.97;;
21862;SDS011;11096;51.338;12.524;2023-03-31T12:36:45;7.88;;;3.88;;
21862;SDS011;11096;51.338;12.524;2023-03-31T12:39:23;9.57;;;3.70;;
21862;SDS011;11096;51.338;12.524;2023-03-31T12:53:04;5.03;;;3.22;;
21862;SDS011;11096;51.338;12.524;2023-03-31T12:55:54;4.85;;;3.33;;
21862;SDS011;11096;51.338;12.524;2023-03-31T13:01:31;5.85;;;3.70;;
21862;SDS011;11096;51.338;12.524;2023-03-31T13:09:05;6.68;;;3.90;;
21862;SDS011;11096;51.338;12.524;2023-03-31T13:11:51;6.20;;;3.70;;
21862;SDS011;11096;51.338;12.524;2023-03-31T13:14:27;6.97;;;3.45;;
21862;SDS011;11096;51.338;12.524;2023-03-31T13:17:10;7.95;;;3.85;;
21862;SDS011;11096;51.338;12.524;2023-03-31T13:19:39;7.40;;;3.30;;
21862;SDS011;11096;51.338;12.524;2023-03-31T13:22:06;5.97;;;3.25;;
21862;SDS011;11096;51.338;12.524;2023-03-31T13:24:32;4.25;;;3.40;;
21862;SDS011;11096;51.338;12.524;2023-03-31T13:27:44;6.57;;;3.67;;
21862;SDS011;11096;51.338;12.524;2023-03-31T13:29:54;5.03;;;2.85;;
21862;SDS011;11096;51.338;12.524;2023-03-31T13:32:24;3.05;;;2.33;;
21862;SDS011;11096;51.338;12.524;2023-03-31T14:06:19;1.00;;;0.70;;
21862;SDS011;11096;51.338;12.524;2023-03-31T14:11:27;0.93;;;0.88;;
21862;SDS011;11096;51.338;12.524;2023-03-31T14:14:38;1.70;;;1.00;;
21862;SDS011;11096;51.338;12.524;2023-03-31T14:16:44;3.00;;;1.20;;
21862;SDS011;11096;51.338;12.524;2023-03-31T14:19:19;1.13;;;0.98;;
21862;SDS011;11096;51.338;12.524;2023-03-31T14:35:40;1.73;;;0.98;;
21862;SDS011;11096;51.338;12.524;2023-03-31T14:38:15;2.17;;;1.35;;
21862;SDS011;11096;51.338;12.524;2023-03-31T14:40:47;2.63;;;1.02;;
21862;SDS011;11096;51.338;12.524;2023-03-31T14:43:19;4.07;;;1.70;;
21862;SDS011;11096;51.338;12.524;2023-03-31T14:45:47;2.95;;;1.10;;
21862;SDS011;11096;51.338;12.524;2023-03-31T14:48:21;2.05;;;0.98;;
21862;SDS011;11096;51.338;12.524;2023-03-31T14:50:47;2.13;;;1.10;;
21862;SDS011;11096;51.338;12.524;2023-03-31T14:53:13;5.30;;;1.42;;
21862;SDS011;11096;51.338;12.524;2023-03-31T14:55:47;5.18;;;1.08;;
21862;SDS011;11096;51.338;12.524;2023-03-31T14:58:13;4.18;;;0.80;;
21862;SDS011;11096;51.338;12.524;2023-03-31T15:00:47;2.65;;;0.98;;
21862;SDS011;11096;51.338;12.524;2023-03-31T15:03:13;2.58;;;0.55;;
21862;SDS011;11096;51.338;12.524;2023-03-31T15:05:40;2.30;;;0.70;;
21862;SDS011;11096;51.338;12.524;2023-03-31T15:08:09;3.15;;;0.70;;
21862;SDS011;11096;51.338;12.524;2023-03-31T15:10:39;4.95;;;0.80;;
21862;SDS011;11096;51.338;12.524;2023-03-31T15:13:08;4.47;;;1.10;;
21862;SDS011;11096;51.338;12.524;2023-03-31T15:15:39;3.63;;;0.90;;
21862;SDS011;11096;51.338;12.524;2023-03-31T15:18:04;4.63;;;1.63;;
21862;SDS011;11096;51.338;12.524;2023-03-31T15:20:31;2.42;;;1.13;;
21862;SDS011;11096;51.338;12.524;2023-03-31T15:23:00;2.05;;;1.17;;
21862;SDS011;11096;51.338;12.524;2023-03-31T15:25:35;3.03;;;1.10;;
21862;SDS011;11096;51.338;12.524;2023-03-31T15:28:06;2.63;;;1.05;;
21862;SDS011;11096;51.338;12.524;2023-03-31T15:30:35;3.95;;;1.48;;
21862;SDS011;11096;51.338;12.524;2023-03-31T15:33:04;7.68;;;1.23;;
21862;SDS011;11096;51.338;12.524;2023-03-31T15:35:31;4.40;;;1.38;;
21862;SDS011;11096;51.338;12.524;2023-03-31T15:38:00;3.13;;;1.30;;
21862;SDS011;11096;51.338;12.524;2023-03-31T15:45:37;3.95;;;1.20;;
21862;SDS011;11096;51.338;12.524;2023-03-31T15:48:18;2.95;;;1.10;;
21862;SDS011;11096;51.338;12.524;2023-03-31T15:50:48;2.42;;;1.35;;
21862;SDS011;11096;51.338;12.524;2023-03-31T15:56:03;3.67;;;1.17;;
21862;SDS011;11096;51.338;12.524;2023-03-31T16:01:32;2.65;;;1.00;;
21862;SDS011;11096;51.338;12.524;2023-03-31T16:04:00;2.55;;;0.73;;
21862;SDS011;11096;51.338;12.524;2023-03-31T16:09:03;1.17;;;0.65;;
21862;SDS011;11096;51.338;12.524;2023-03-31T16:14:14;1.25;;;0.85;;
21862;SDS011;11096;51.338;12.524;2023-03-31T16:16:56;2.63;;;0.70;;
21862;SDS011;11096;51.338;12.524;2023-03-31T16:19:29;1.15;;;0.90;;
21862;SDS011;11096;51.338;12.524;2023-03-31T16:22:03;2.05;;;0.98;;
21862;SDS011;11096;51.338;12.524;2023-03-31T16:24:32;1.85;;;0.82;;
21862;SDS011;11096;51.338;12.524;2023-03-31T16:27:03;0.90;;;0.80;;
21862;SDS011;11096;51.338;12.524;2023-03-31T16:29:32;1.13;;;0.80;;
21862;SDS011;11096;51.338;12.524;2023-03-31T16:34:50;2.03;;;0.80;;
21862;SDS011;11096;51.338;12.524;2023-03-31T16:37:17;1.15;;;0.70;;
21862;SDS011;11096;51.338;12.524;2023-03-31T16:39:43;2.78;;;0.90;;
21862;SDS011;11096;51.338;12.524;2023-03-31T16:42:08;2.00;;;0.70;;
21862;SDS011;11096;51.338;12.524;2023-03-31T16:44:33;1.90;;;0.90;;
21862;SDS011;11096;51.338;12.524;2023-03-31T16:46:59;1.23;;;0.90;;
21862;SDS011;11096;51.338;12.524;2023-03-31T16:49:24;3.33;;;0.80;;
21862;SDS011;11096;51.338;12.524;2023-03-31T16:51:50;3.22;;;0.90;;
21862;SDS011;11096;51.338;12.524;2023-03-31T16:54:16;4.18;;;1.15;;
21862;SDS011;11096;51.338;12.524;2023-03-31T16:56:42;3.28;;;1.05;;
21862;SDS011;11096;51.338;12.524;2023-03-31T16:59:07;3.63;;;1.27;;
21862;SDS011;11096;51.338;12.524;2023-03-31T17:01:32;4.55;;;1.13;;
21862;SDS011;11096;51.338;12.524;2023-03-31T17:03:59;2.97;;;1.08;;
21862;SDS011;11096;51.338;12.524;2023-03-31T17:06:24;4.43;;;1.38;;
21862;SDS011;11096;51.338;12.524;2023-03-31T17:08:50;5.85;;;1.42;;
21862;SDS011;11096;51.338;12.524;2023-03-31T17:11:15;4.70;;;1.20;;
21862;SDS011;11096;51.338;12.524;2023-03-31T17:13:41;3.03;;;1.27;;
21862;SDS011;11096;51.338;12.524;2023-03-31T17:16:08;2.03;;;1.20;;
21862;SDS011;11096;51.338;12.524;2023-03-31T17:18:35;3.38;;;1.25;;
21862;SDS011;11096;51.338;12.524;2023-03-31T17:21:01;2.15;;;1.55;;
21862;SDS011;11096;51.338;12.524;2023-03-31T17:23:37;3.78;;;1.50;;
21862;SDS011;11096;51.338;12.524;2023-03-31T17:26:04;5.57;;;1.63;;
21862;SDS011;11096;51.338;12.524;2023-03-31T17:28:31;4.15;;;1.27;;
21862;SDS011;11096;51.338;12.524;2023-03-31T17:30:57;2.67;;;1.30;;
21862;SDS011;11096;51.338;12.524;2023-03-31T17:33:23;4.82;;;1.35;;
21862;SDS011;11096;51.338;12.524;2023-03-31T17:35:49;3.17;;;1.23;;
21862;SDS011;11096;51.338;12.524;2023-03-31T17:38:14;2.33;;;1.17;;
21862;SDS011;11096;51.338;12.524;2023-03-31T17:40:43;5.68;;;1.70;;
21862;SDS011;11096;51.338;12.524;2023-03-31T17:43:09;4.40;;;1.75;;
21862;SDS011;11096;51.338;12.524;2023-03-31T17:45:35;5.13;;;1.98;;
21862;SDS011;11096;51.338;12.524;2023-03-31T17:48:00;3.22;;;1.98;;
21862;SDS011;11096;51.338;12.524;2023-03-31T17:50:27;3.22;;;1.88;;
21862;SDS011;11096;51.338;12.524;2023-03-31T17:52:52;3.63;;;1.88;;
21862;SDS011;11096;51.338;12.524;2023-03-31T17:55:18;3.45;;;2.15;;